createdAt,value
2017-11-20T00:00:10.891Z,6.70
2017-11-20T00:02:38.368Z,7.20
2017-11-20T00:05:05.839Z,12.23
2017-11-20T00:07:33.303Z,2.70
2017-11-20T00:10:00.786Z,4.90
2017-11-20T00:12:28.239Z,15.83
2017-11-20T00:14:55.690Z,5.10
2017-11-20T00:17:23.162Z,7.57
2017-11-20T00:19:50.610Z,6.90
2017-11-20T00:22:18.086Z,6.63
2017-11-20T00:24:45.535Z,9.23
2017-11-20T00:27:13.293Z,14.37
2017-11-20T00:29:40.756Z,11.07
2017-11-20T00:32:08.215Z,5.10
2017-11-20T00:34:35.694Z,8.33
2017-11-20T00:37:03.147Z,7.17
2017-11-20T00:39:30.599Z,3.40
2017-11-20T00:41:58.057Z,2.27
2017-11-20T00:44:25.503Z,7.32
2017-11-20T00:46:52.974Z,8.27
2017-11-20T00:49:20.438Z,7.77
2017-11-20T00:51:47.887Z,9.03
2017-11-20T00:54:15.361Z,10.97
2017-11-20T00:56:42.817Z,4.53
2017-11-20T00:59:10.290Z,4.03
2017-11-20T01:01:37.770Z,8.10
2017-11-20T01:04:05.231Z,5.80
2017-11-20T01:06:32.710Z,11.20
2017-11-20T01:09:00.162Z,5.83
2017-11-20T01:11:27.635Z,11.50
2017-11-20T01:13:55.104Z,7.35
2017-11-20T01:16:22.588Z,6.22
2017-11-20T01:18:50.055Z,4.57
2017-11-20T01:21:17.530Z,7.47
2017-11-20T01:23:44.979Z,10.97
2017-11-20T01:26:12.467Z,11.05
2017-11-20T01:28:39.926Z,6.60
2017-11-20T01:31:07.395Z,6.33
2017-11-20T01:33:34.850Z,10.63
2017-11-20T01:36:02.331Z,10.43
2017-11-20T01:38:29.805Z,9.37
2017-11-20T01:40:57.280Z,15.67
2017-11-20T01:43:24.722Z,5.70
2017-11-20T01:45:52.205Z,3.40
2017-11-20T01:48:19.651Z,6.30
2017-11-20T01:50:47.132Z,5.93
2017-11-20T01:53:14.580Z,4.50
2017-11-20T01:55:42.058Z,6.80
2017-11-20T01:58:09.519Z,3.43
2017-11-20T02:00:36.983Z,9.63
2017-11-20T02:03:04.464Z,3.73
2017-11-20T02:05:31.922Z,7.30
2017-11-20T02:07:59.381Z,14.07
2017-11-20T02:10:26.856Z,6.47
2017-11-20T02:12:54.325Z,9.80
2017-11-20T02:15:21.783Z,9.73
2017-11-20T02:17:49.276Z,11.67
2017-11-20T02:20:16.727Z,9.47
2017-11-20T02:22:44.215Z,9.17
2017-11-20T02:25:11.707Z,8.10
2017-11-20T02:27:39.177Z,7.30
2017-11-20T02:30:06.667Z,17.35
2017-11-20T02:32:34.117Z,16.27
2017-11-20T02:35:01.575Z,9.53
2017-11-20T02:37:29.045Z,10.00
2017-11-20T02:39:56.496Z,7.03
2017-11-20T02:42:23.989Z,11.10
2017-11-20T02:44:51.435Z,6.53
2017-11-20T02:47:18.886Z,6.30
2017-11-20T02:49:46.360Z,7.47
2017-11-20T02:52:13.801Z,8.80
2017-11-20T02:54:41.600Z,3.50
2017-11-20T02:57:09.084Z,8.53
2017-11-20T02:59:36.540Z,7.72
2017-11-20T03:02:04.010Z,9.40
2017-11-20T03:04:31.460Z,8.23
2017-11-20T03:06:59.107Z,9.57
2017-11-20T03:09:26.557Z,8.33
2017-11-20T03:11:54.012Z,2.70
2017-11-20T03:14:21.489Z,22.37
2017-11-20T03:16:48.954Z,7.13
2017-11-20T03:19:16.450Z,5.00
2017-11-20T03:21:43.914Z,10.27
2017-11-20T03:24:11.373Z,10.87
2017-11-20T03:26:38.853Z,6.47
2017-11-20T03:29:06.309Z,4.70
2017-11-20T03:31:33.778Z,6.33
2017-11-20T03:34:01.243Z,5.90
2017-11-20T03:36:28.705Z,5.20
2017-11-20T03:38:56.190Z,6.73
2017-11-20T03:41:23.676Z,7.17
2017-11-20T03:43:51.161Z,3.77
2017-11-20T03:46:18.639Z,3.67
2017-11-20T03:48:46.098Z,8.37
2017-11-20T03:51:13.703Z,21.03
2017-11-20T03:53:41.156Z,8.33
2017-11-20T03:56:08.602Z,8.97
2017-11-20T03:58:36.080Z,7.55
2017-11-20T04:01:03.884Z,10.35
2017-11-20T04:03:31.343Z,11.00
2017-11-20T04:05:58.810Z,11.63
2017-11-20T04:08:26.281Z,3.37
2017-11-20T04:10:53.750Z,4.90
2017-11-20T04:13:21.200Z,9.30
2017-11-20T04:15:48.779Z,7.83
2017-11-20T04:18:16.240Z,5.80
2017-11-20T04:20:43.695Z,19.50
2017-11-20T04:23:11.175Z,5.73
2017-11-20T04:25:38.642Z,6.00
2017-11-20T04:28:06.103Z,6.00
2017-11-20T04:30:33.741Z,7.17
2017-11-20T04:33:01.194Z,5.20
2017-11-20T04:35:28.697Z,11.23
2017-11-20T04:37:56.145Z,8.70
2017-11-20T04:40:23.635Z,5.80
2017-11-20T04:42:51.092Z,4.50
2017-11-20T04:45:18.541Z,6.97
2017-11-20T04:47:46.014Z,5.53
2017-11-20T04:50:13.465Z,5.07
2017-11-20T04:52:41.105Z,5.27
2017-11-20T04:55:08.551Z,10.53
2017-11-20T04:57:36.027Z,8.67
2017-11-20T05:00:03.483Z,6.50
2017-11-20T05:02:30.962Z,4.72
2017-11-20T05:04:58.720Z,7.13
2017-11-20T05:07:26.186Z,5.30
2017-11-20T05:09:54.108Z,6.80
2017-11-20T05:12:21.600Z,8.30
2017-11-20T05:14:49.061Z,9.03
2017-11-20T05:17:16.941Z,6.72
2017-11-20T05:19:44.405Z,9.47
2017-11-20T05:22:11.857Z,7.37
2017-11-20T05:24:39.333Z,9.00
2017-11-20T05:27:06.782Z,11.77
2017-11-20T05:29:34.267Z,13.10
2017-11-20T05:32:01.719Z,5.43
2017-11-20T05:34:29.220Z,12.30
2017-11-20T05:36:56.660Z,7.90
2017-11-20T05:39:24.138Z,9.63
2017-11-20T05:41:51.598Z,11.80
2017-11-20T05:44:19.091Z,9.82
2017-11-20T05:46:46.537Z,11.77
2017-11-20T05:49:13.990Z,4.07
2017-11-20T05:51:41.462Z,9.33
2017-11-20T05:54:08.927Z,11.40
2017-11-20T05:56:36.407Z,10.73
2017-11-20T05:59:03.903Z,14.87
2017-11-20T06:01:31.381Z,5.17
2017-11-20T06:03:58.843Z,4.13
2017-11-20T06:06:26.434Z,9.35
2017-11-20T06:08:53.883Z,10.33
2017-11-20T06:11:21.355Z,9.27
2017-11-20T06:13:48.822Z,8.70
2017-11-20T06:16:16.274Z,8.47
2017-11-20T06:18:43.743Z,8.60
2017-11-20T06:21:11.222Z,9.53
2017-11-20T06:23:38.676Z,8.95
2017-11-20T06:26:06.156Z,9.98
2017-11-20T06:28:33.605Z,8.33
2017-11-20T06:31:01.081Z,9.63
2017-11-20T06:33:28.531Z,8.20
2017-11-20T06:35:55.988Z,19.62
2017-11-20T06:38:23.469Z,14.48
2017-11-20T06:40:50.920Z,16.03
2017-11-20T06:43:18.371Z,13.87
2017-11-20T06:45:45.849Z,9.40
2017-11-20T06:48:13.322Z,12.57
2017-11-20T06:50:40.774Z,8.43
2017-11-20T06:53:08.382Z,14.15
2017-11-20T06:55:35.864Z,14.77
2017-11-20T06:58:03.353Z,6.33
2017-11-20T07:00:30.794Z,8.30
2017-11-20T07:02:58.270Z,9.13
2017-11-20T07:05:25.715Z,14.73
2017-11-20T07:07:53.175Z,10.50
2017-11-20T07:10:20.657Z,5.60
2017-11-20T07:12:48.132Z,17.48
2017-11-20T07:15:15.622Z,11.10
2017-11-20T07:17:43.107Z,10.02
2017-11-20T07:20:10.595Z,9.52
2017-11-20T07:22:38.483Z,12.30
2017-11-20T07:28:09.189Z,6.47
2017-11-20T07:30:48.259Z,6.07
2017-11-20T07:33:15.748Z,10.35
2017-11-20T07:38:48.415Z,9.13
2017-11-20T07:41:27.402Z,13.00
2017-11-20T07:43:54.880Z,13.80
2017-11-20T07:46:22.344Z,8.97
2017-11-20T07:48:49.827Z,12.65
2017-11-20T07:51:17.305Z,15.20
2017-11-20T07:53:44.781Z,11.63
2017-11-20T07:56:12.258Z,6.97
2017-11-20T07:58:39.702Z,7.90
2017-11-20T08:01:07.166Z,15.73
2017-11-20T08:03:34.650Z,12.60
2017-11-20T08:06:02.505Z,6.37
2017-11-20T08:08:29.954Z,9.90
2017-11-20T08:10:57.414Z,12.45
2017-11-20T08:13:24.908Z,12.13
2017-11-20T08:15:52.372Z,12.40
2017-11-20T08:18:19.872Z,11.63
2017-11-20T08:20:47.358Z,16.07
2017-11-20T08:23:14.806Z,8.63
2017-11-20T08:25:42.292Z,13.20
2017-11-20T08:28:09.750Z,10.50
2017-11-20T08:30:37.247Z,9.83
2017-11-20T08:33:04.704Z,10.30
2017-11-20T08:35:32.174Z,15.50
2017-11-20T08:37:59.651Z,16.20
2017-11-20T08:40:27.112Z,11.43
2017-11-20T08:42:54.558Z,9.50
2017-11-20T08:45:22.028Z,8.10
2017-11-20T08:47:49.478Z,7.40
2017-11-20T08:50:16.946Z,7.93
2017-11-20T08:52:44.404Z,11.40
2017-11-20T08:55:11.873Z,7.93
2017-11-20T08:57:39.329Z,7.00
2017-11-20T09:00:06.811Z,9.37
2017-11-20T09:02:34.267Z,10.07
2017-11-20T09:05:01.791Z,6.37
2017-11-20T09:07:29.243Z,11.50
2017-11-20T09:09:57.079Z,4.77
2017-11-20T09:12:24.521Z,14.43
2017-11-20T09:14:51.986Z,13.47
2017-11-20T09:17:19.466Z,18.47
2017-11-20T09:19:46.950Z,10.20
2017-11-20T09:22:14.406Z,11.60
2017-11-20T09:24:41.905Z,9.53
2017-11-20T09:27:09.384Z,7.17
2017-11-20T09:29:36.869Z,16.43
2017-11-20T09:32:04.355Z,6.83
2017-11-20T09:34:31.805Z,2.73
2017-11-20T09:36:59.287Z,7.67
2017-11-20T09:39:26.752Z,11.43
2017-11-20T09:41:54.210Z,8.03
2017-11-20T09:44:21.687Z,6.10
2017-11-20T09:46:49.177Z,11.90
2017-11-20T09:49:16.666Z,9.00
2017-11-20T09:51:44.110Z,9.00
2017-11-20T09:54:11.568Z,19.67
2017-11-20T09:56:39.067Z,9.03
2017-11-20T09:59:06.532Z,12.33
2017-11-20T10:01:34.011Z,12.43
2017-11-20T10:04:01.495Z,6.87
2017-11-20T10:06:28.989Z,11.80
2017-11-20T10:08:56.475Z,10.23
2017-11-20T10:11:23.955Z,15.02
2017-11-20T10:13:51.576Z,16.07
2017-11-20T10:16:19.051Z,6.80
2017-11-20T10:18:46.521Z,9.80
2017-11-20T10:21:13.981Z,12.23
2017-11-20T10:23:41.450Z,8.33
2017-11-20T10:26:08.907Z,8.77
2017-11-20T10:28:36.728Z,15.60
2017-11-20T10:31:04.187Z,10.53
2017-11-20T10:33:31.630Z,8.60
2017-11-20T10:35:59.118Z,13.37
2017-11-20T10:38:26.566Z,16.07
2017-11-20T10:40:54.023Z,16.10
2017-11-20T10:43:21.507Z,11.43
2017-11-20T10:45:48.963Z,13.17
2017-11-20T10:48:16.435Z,12.37
2017-11-20T10:50:43.905Z,7.67
2017-11-20T10:53:11.351Z,15.23
2017-11-20T10:55:38.800Z,8.33
2017-11-20T10:58:06.285Z,9.30
2017-11-20T11:00:33.787Z,7.90
2017-11-20T11:03:01.255Z,12.03
2017-11-20T11:05:28.714Z,11.50
2017-11-20T11:07:56.200Z,8.93
2017-11-20T11:10:23.642Z,7.40
2017-11-20T11:12:51.117Z,7.83
2017-11-20T11:15:18.579Z,9.67
2017-11-20T11:17:46.023Z,8.60
2017-11-20T11:20:13.489Z,13.10
2017-11-20T11:22:40.976Z,8.00
2017-11-20T11:25:08.450Z,6.90
2017-11-20T11:27:35.894Z,6.73
2017-11-20T11:30:03.367Z,13.80
2017-11-20T11:32:30.825Z,7.57
2017-11-20T11:34:58.293Z,7.07
2017-11-20T11:37:25.745Z,5.77
2017-11-20T11:39:53.190Z,7.57
2017-11-20T11:42:20.665Z,8.80
2017-11-20T11:44:48.115Z,6.80
2017-11-20T11:47:15.739Z,10.80
2017-11-20T11:49:43.188Z,8.47
2017-11-20T11:52:10.639Z,4.00
2017-11-20T11:54:38.126Z,9.57
2017-11-20T11:57:05.583Z,11.10
2017-11-20T11:59:33.032Z,12.50
2017-11-20T12:02:00.496Z,15.63
2017-11-20T12:04:27.970Z,3.83
2017-11-20T12:06:55.422Z,4.87
2017-11-20T12:09:22.892Z,6.23
2017-11-20T12:11:50.345Z,5.43
2017-11-20T12:14:17.802Z,8.63
2017-11-20T12:16:45.275Z,10.17
2017-11-20T12:19:12.722Z,4.50
2017-11-20T12:21:40.203Z,10.07
2017-11-20T12:24:08.051Z,6.23
2017-11-20T12:26:35.545Z,5.47
2017-11-20T12:29:03.026Z,7.00
2017-11-20T12:31:30.494Z,12.63
2017-11-20T12:33:58.193Z,3.60
2017-11-20T12:36:25.634Z,3.00
2017-11-20T12:38:53.090Z,9.40
2017-11-20T12:41:20.563Z,4.93
2017-11-20T12:43:48.010Z,4.47
2017-11-20T12:46:15.504Z,4.00
2017-11-20T12:48:43.009Z,4.23
2017-11-20T12:51:10.462Z,3.30
2017-11-20T12:53:37.954Z,8.90
2017-11-20T12:56:05.411Z,8.07
2017-11-20T12:58:32.880Z,4.33
2017-11-20T13:01:00.346Z,3.93
2017-11-20T13:03:27.855Z,6.20
2017-11-20T13:05:55.332Z,7.07
2017-11-20T13:08:22.787Z,4.60
2017-11-20T13:10:50.298Z,3.20
2017-11-20T13:13:17.750Z,24.63
2017-11-20T13:15:45.208Z,22.63
2017-11-20T13:18:12.769Z,4.60
2017-11-20T13:20:40.252Z,7.23
2017-11-20T13:23:07.995Z,8.80
2017-11-20T13:25:35.446Z,3.27
2017-11-20T13:28:02.928Z,5.93
2017-11-20T13:30:30.438Z,15.00
2017-11-20T13:32:57.886Z,9.37
2017-11-20T13:35:25.522Z,11.07
2017-11-20T13:37:52.994Z,7.70
2017-11-20T13:40:20.455Z,3.40
2017-11-20T13:42:47.921Z,5.37
2017-11-20T13:45:15.393Z,4.83
2017-11-20T13:47:42.870Z,11.33
2017-11-20T13:50:10.315Z,4.30
2017-11-20T13:52:38.301Z,5.57
2017-11-20T13:55:05.808Z,4.80
2017-11-20T13:57:33.265Z,4.03
2017-11-20T14:00:00.719Z,8.27
2017-11-20T14:02:28.189Z,4.73
2017-11-20T14:04:55.667Z,3.07
2017-11-20T14:07:23.182Z,8.80
2017-11-20T14:09:50.661Z,4.43
2017-11-20T14:12:18.114Z,6.57
2017-11-20T14:14:45.585Z,7.20
2017-11-20T14:17:13.031Z,6.80
2017-11-20T14:19:40.521Z,14.83
2017-11-20T14:22:07.998Z,5.80
2017-11-20T14:24:35.432Z,4.77
2017-11-20T14:27:02.922Z,10.20
2017-11-20T14:29:30.397Z,9.33
2017-11-20T14:31:58.085Z,5.87
2017-11-20T14:34:25.558Z,6.23
2017-11-20T14:36:53.331Z,8.43
2017-11-20T14:39:20.814Z,6.37
2017-11-20T14:41:48.253Z,6.87
2017-11-20T14:44:15.697Z,5.17
2017-11-20T14:46:43.375Z,4.17
2017-11-20T14:49:10.827Z,3.20
2017-11-20T14:52:00.831Z,3.40
2017-11-20T14:54:39.135Z,4.97
2017-11-20T14:57:06.640Z,5.25
2017-11-20T14:59:34.098Z,8.03
2017-11-20T15:02:01.551Z,9.20
2017-11-20T15:04:29.077Z,4.85
2017-11-20T15:06:56.618Z,3.17
2017-11-20T15:09:24.411Z,2.53
2017-11-20T15:11:51.863Z,8.93
2017-11-20T15:14:19.354Z,3.47
2017-11-20T15:16:46.878Z,7.97
2017-11-20T15:19:14.329Z,4.47
2017-11-20T15:21:42.012Z,4.57
2017-11-20T15:24:09.465Z,2.40
2017-11-20T15:26:36.934Z,2.57
2017-11-20T15:29:04.407Z,7.30
2017-11-20T15:31:31.881Z,4.12
2017-11-20T15:33:59.355Z,3.20
2017-11-20T15:36:26.815Z,6.03
2017-11-20T15:38:54.291Z,7.00
2017-11-20T15:41:21.739Z,5.50
2017-11-20T15:43:49.423Z,10.15
2017-11-20T15:46:16.891Z,7.37
2017-11-20T15:48:44.349Z,5.95
2017-11-20T15:51:11.836Z,6.50
2017-11-20T15:53:39.309Z,5.20
2017-11-20T15:56:06.800Z,3.95
2017-11-20T15:58:34.280Z,3.10
2017-11-20T16:01:01.753Z,7.22
2017-11-20T16:03:29.232Z,5.15
2017-11-20T16:05:56.687Z,5.20
2017-11-20T16:08:24.150Z,5.30
2017-11-20T16:10:51.629Z,6.95
2017-11-20T16:13:19.098Z,11.27
2017-11-20T16:15:46.568Z,6.57
2017-11-20T16:18:14.063Z,3.73
2017-11-20T16:20:41.510Z,5.70
2017-11-20T16:23:08.986Z,4.70
2017-11-20T16:25:36.469Z,9.20
2017-11-20T16:28:03.918Z,5.33
2017-11-20T16:30:31.392Z,5.67
2017-11-20T16:32:58.855Z,1.83
2017-11-20T16:35:26.318Z,4.03
2017-11-20T16:37:53.806Z,4.32
2017-11-20T16:40:21.264Z,11.83
2017-11-20T16:42:48.764Z,5.50
2017-11-20T16:45:16.226Z,11.43
2017-11-20T16:47:43.699Z,10.10
2017-11-20T16:50:11.173Z,14.47
2017-11-20T16:52:38.911Z,4.87
2017-11-20T16:55:06.373Z,12.18
2017-11-20T16:57:45.687Z,4.30
2017-11-20T17:00:24.762Z,10.43
2017-11-20T17:03:10.919Z,5.57
2017-11-20T17:05:38.366Z,11.37
2017-11-20T17:08:06.015Z,6.43
2017-11-20T17:10:33.478Z,9.43
2017-11-20T17:13:00.949Z,10.07
2017-11-20T17:15:28.422Z,10.75
2017-11-20T17:17:56.089Z,7.83
2017-11-20T17:20:23.542Z,8.75
2017-11-20T17:22:51.003Z,17.00
2017-11-20T17:25:18.486Z,11.87
2017-11-20T17:27:45.978Z,12.80
2017-11-20T17:30:13.457Z,16.12
2017-11-20T17:32:40.933Z,14.50
2017-11-20T17:35:08.420Z,14.43
2017-11-20T17:37:35.912Z,13.82
2017-11-20T17:40:03.371Z,16.45
2017-11-20T17:42:30.847Z,13.35
2017-11-20T17:44:58.307Z,13.52
2017-11-20T17:47:25.796Z,17.33
2017-11-20T17:49:53.256Z,9.03
2017-11-20T17:52:20.737Z,14.90
2017-11-20T17:54:48.197Z,10.20
2017-11-20T17:57:15.679Z,7.60
2017-11-20T17:59:43.157Z,10.07
2017-11-20T18:02:10.639Z,6.60
2017-11-20T18:04:38.244Z,26.27
2017-11-20T18:07:05.718Z,15.77
2017-11-20T18:09:33.215Z,15.70
2017-11-20T18:12:00.682Z,12.68
2017-11-20T18:14:28.142Z,12.87
2017-11-20T18:16:55.819Z,13.82
2017-11-20T18:19:23.282Z,14.93
2017-11-20T18:21:50.745Z,11.90
2017-11-20T18:24:18.245Z,16.65
2017-11-20T18:26:45.707Z,11.90
2017-11-20T18:29:13.189Z,12.17
2017-11-20T18:31:40.699Z,10.43
2017-11-20T18:34:08.159Z,12.97
2017-11-20T18:36:35.657Z,20.58
2017-11-20T18:39:03.119Z,17.67
2017-11-20T18:41:30.574Z,9.90
2017-11-20T18:43:58.063Z,8.40
2017-11-20T18:46:25.531Z,14.53
2017-11-20T18:48:52.989Z,15.50
2017-11-20T18:51:20.473Z,15.20
2017-11-20T18:53:47.946Z,16.47
2017-11-20T18:56:15.411Z,18.07
2017-11-20T18:58:42.990Z,17.93
2017-11-20T19:01:22.158Z,35.03
2017-11-20T19:04:01.315Z,21.53
2017-11-20T19:09:27.504Z,34.70
2017-11-20T19:11:54.970Z,41.13
2017-11-20T19:14:22.462Z,30.42
2017-11-20T19:16:49.953Z,39.57
2017-11-20T19:19:17.426Z,41.08
2017-11-20T19:21:44.912Z,52.45
2017-11-20T19:24:12.397Z,49.10
2017-11-20T19:26:39.937Z,45.63
2017-11-20T19:29:07.407Z,35.97
2017-11-20T19:31:34.899Z,37.95
2017-11-20T19:34:02.376Z,37.45
2017-11-20T19:36:29.834Z,35.85
2017-11-20T19:38:57.371Z,36.40
2017-11-20T19:41:24.827Z,27.50
2017-11-20T19:43:52.343Z,36.00
2017-11-20T19:46:19.819Z,28.05
2017-11-20T19:48:47.289Z,31.58
2017-11-20T19:51:14.780Z,24.73
2017-11-20T19:53:42.252Z,29.67
2017-11-20T19:56:09.757Z,38.07
2017-11-20T19:58:37.220Z,28.77
2017-11-20T20:01:04.679Z,26.20
2017-11-20T20:03:32.167Z,33.73
2017-11-20T20:05:59.735Z,37.00
2017-11-20T20:08:27.233Z,30.90
2017-11-20T20:10:54.710Z,30.33
2017-11-20T20:13:33.862Z,31.83
2017-11-20T20:16:13.115Z,45.38
2017-11-20T20:18:40.682Z,31.60
2017-11-20T20:21:08.163Z,24.20
2017-11-20T20:23:35.654Z,20.93
2017-11-20T20:26:03.114Z,21.50
2017-11-20T20:28:30.599Z,24.47
2017-11-20T20:30:58.062Z,28.90
2017-11-20T20:33:25.562Z,21.20
2017-11-20T20:35:53.069Z,29.77
2017-11-20T20:38:20.559Z,34.70
2017-11-20T20:40:48.015Z,31.47
2017-11-20T20:43:15.510Z,31.53
2017-11-20T20:45:42.983Z,28.47
2017-11-20T20:48:10.517Z,32.20
2017-11-20T20:50:38.011Z,35.00
2017-11-20T20:53:05.477Z,33.13
2017-11-20T20:55:32.980Z,43.97
2017-11-20T20:58:00.451Z,43.37
2017-11-20T21:00:27.949Z,27.13
2017-11-20T21:02:55.466Z,30.90
2017-11-20T21:05:22.932Z,36.53
2017-11-20T21:07:50.415Z,22.30
2017-11-20T21:10:23.372Z,26.93
2017-11-20T21:12:51.571Z,32.87
2017-11-20T21:15:19.045Z,26.90
2017-11-20T21:17:46.528Z,32.63
2017-11-20T21:20:13.990Z,28.77
2017-11-20T21:22:41.501Z,32.23
2017-11-20T21:25:08.996Z,26.30
2017-11-20T21:27:36.464Z,29.20
2017-11-20T21:30:03.937Z,24.83
2017-11-20T21:32:31.422Z,29.47
2017-11-20T21:34:58.908Z,25.30
2017-11-20T21:37:26.391Z,25.97
2017-11-20T21:39:53.878Z,29.97
2017-11-20T21:42:21.343Z,30.43
2017-11-20T21:44:48.805Z,25.47
2017-11-20T21:47:16.286Z,25.27
2017-11-20T21:49:43.741Z,30.70
2017-11-20T21:52:11.231Z,35.93
2017-11-20T21:54:38.710Z,34.53
2017-11-20T21:57:06.169Z,28.80
2017-11-20T21:59:33.658Z,28.90
2017-11-20T22:02:01.141Z,22.10
2017-11-20T22:04:28.620Z,22.00
2017-11-20T22:06:56.084Z,16.90
2017-11-20T22:09:23.614Z,18.40
2017-11-20T22:11:51.072Z,24.33
2017-11-20T22:14:18.551Z,21.67
2017-11-20T22:16:46.012Z,18.43
2017-11-20T22:19:13.504Z,19.87
2017-11-20T22:21:40.967Z,25.80
2017-11-20T22:24:08.442Z,21.63
2017-11-20T22:26:35.907Z,18.63
2017-11-20T22:29:03.456Z,19.43
2017-11-20T22:31:30.906Z,25.97
2017-11-20T22:33:58.391Z,22.10
2017-11-20T22:36:25.852Z,24.07
2017-11-20T22:38:53.330Z,18.30
2017-11-20T22:41:20.813Z,20.17
2017-11-20T22:43:48.279Z,24.80
2017-11-20T22:46:15.771Z,18.83
2017-11-20T22:48:43.257Z,18.60
2017-11-20T22:51:10.711Z,21.73
2017-11-20T22:53:38.209Z,19.03
2017-11-20T22:56:05.674Z,16.90
2017-11-20T22:58:33.139Z,17.53
2017-11-20T23:01:00.621Z,20.50
2017-11-20T23:03:28.079Z,18.33
2017-11-20T23:05:55.561Z,17.67
2017-11-20T23:08:23.026Z,23.03
2017-11-20T23:10:50.507Z,19.57
2017-11-20T23:13:17.972Z,16.40
2017-11-20T23:15:45.436Z,18.83
2017-11-20T23:18:12.923Z,26.03
2017-11-20T23:20:40.377Z,21.13
2017-11-20T23:23:07.866Z,20.50
2017-11-20T23:25:35.323Z,23.43
2017-11-20T23:28:02.798Z,23.57
2017-11-20T23:30:30.282Z,31.70
2017-11-20T23:32:57.742Z,26.23
2017-11-20T23:35:25.210Z,26.03
2017-11-20T23:37:52.706Z,36.17
2017-11-20T23:40:20.158Z,26.70
2017-11-20T23:42:47.645Z,24.67
2017-11-20T23:45:15.102Z,21.40
2017-11-20T23:47:42.579Z,21.73
2017-11-20T23:50:10.057Z,22.70
2017-11-20T23:52:37.918Z,20.30
2017-11-20T23:55:05.389Z,24.23
2017-11-20T23:57:32.842Z,37.37
